Flugplatz Bexbach (EDRX)

Hier findest Du alle Informationen zum Flugplatz Bexbach (EDRX).

Informationen für Piloten zum Flugplatz Bexbach

Hier findest Du alle relevanten Informationen, die Du als Pilot benötigst, um Bexbach anzufliegen.

Flugplatz: Bexbach ICAO-Code: EDRX
Frequenz Turm: 123,05 Mhz GAFOR Gebiet: 44
Frequenz Ground: 123,05 Mhz Mogas: ja
Platzrunde: N 2000 ft Landegebühr: 0 €
Platzhöhe: - Sunrise: 03:30 Uhr UTC
Pisten: 06/24 - 550 m x 30 m, GRAS Sunset: 19:25 Uhr UTC

Flugwetter am Flugplatz Bexbach

Die METAR Information stammen aus EDDR (17.59 km entfernt).

METAR Code:
2022/05/12 11:50
EDDR 121150Z AUTO 24011KT 190V270 9999 BKN036 BKN045 20/11 Q1020 NOSIG

Temperatur: 11,9 °C Niederschlag: - Wind: 4,0 kt
Temperatur (min.): 10,9 °C Luftdruck: 1024 hPa Windrichtung: 300 °
Temperatur (max.): 13,3 °C Luftfeuchtigkeit: 62 % Bewölkung: -

Flugschulen am Flugplatz Bexbach

Am Flugplatz Bexbach gibt es leider keine Flugschule.

Benachbarte Flugplätze und Flugschulen

Es gibt 14 weitere Flugplätze in einem Umkreis von 50 km um den Flugplatz Bexbach.

Jetzt anmelden

Passwort vergessen

Umfrage Archiv

Sendet Ihr ADS-B und/oder FLARM?

Ja
81.8 %
Nein
18.2 %
Stimmen: 148 | Diskussion
Anzeige: Roland Aircraft
Statistik Alle Mitglieder

Aktuell sind 82 Besucher online, davon 2 Mitglieder und 80 Gäste.


Mitglieder online:
HansOtto  aviatrix 

Anzeige: ULPower Aero Engines Anzeige: Pocket FMS